createdAt,value
2018-03-28T00:00:01.093Z,95426.61
2018-03-28T00:02:30.581Z,95427.03
2018-03-28T00:05:00.441Z,95410.61
2018-03-28T00:07:30.388Z,95414.88
2018-03-28T00:09:59.876Z,95417.98
2018-03-28T00:12:29.377Z,95419.33
2018-03-28T00:14:58.888Z,95424.38
2018-03-28T00:17:29.010Z,95431.54
2018-03-28T00:19:58.531Z,95420.32
2018-03-28T00:22:28.047Z,95421.28
2018-03-28T00:24:57.545Z,95427.09
2018-03-28T00:27:27.043Z,95414.67
2018-03-28T00:29:56.551Z,95417.59
2018-03-28T00:32:26.061Z,95416.17
2018-03-28T00:34:55.597Z,95416.41
2018-03-28T00:37:25.166Z,95415.06
2018-03-28T00:39:54.659Z,95417.59
2018-03-28T00:42:24.170Z,95408.30
2018-03-28T00:44:54.316Z,95412.75
2018-03-28T00:47:23.823Z,95403.48
2018-03-28T00:49:53.331Z,95405.98
2018-03-28T00:52:22.821Z,95406.21
2018-03-28T00:54:52.330Z,95404.28
2018-03-28T00:57:21.830Z,95396.94
2018-03-28T00:59:51.327Z,95400.02
2018-03-28T01:02:21.087Z,95395.72
2018-03-28T01:04:50.579Z,95396.31
2018-03-28T01:07:20.071Z,95405.27
2018-03-28T01:09:49.572Z,95400.61
2018-03-28T01:12:19.281Z,95404.47
2018-03-28T01:14:48.778Z,95397.14
2018-03-28T01:17:18.289Z,95410.89
2018-03-28T01:19:47.818Z,95407.64
2018-03-28T01:22:17.387Z,95409.75
2018-03-28T01:24:46.898Z,95414.80
2018-03-28T01:27:16.420Z,95412.11
2018-03-28T01:29:45.941Z,95420.05
2018-03-28T01:32:15.310Z,95404.55
2018-03-28T01:34:44.817Z,95395.84
2018-03-28T01:37:14.303Z,95400.70
2018-03-28T01:39:44.517Z,95412.52
2018-03-28T01:42:14.488Z,95398.37
2018-03-28T01:44:43.985Z,95405.15
2018-03-28T01:47:13.487Z,95402.25
2018-03-28T01:49:42.978Z,95406.34
2018-03-28T01:52:12.285Z,95407.67
2018-03-28T01:54:41.601Z,95411.78
2018-03-28T01:57:11.091Z,95409.26
2018-03-28T01:59:40.597Z,95405.19
2018-03-28T02:02:10.102Z,95404.05
2018-03-28T02:04:39.640Z,95399.97
2018-03-28T02:07:09.143Z,95407.88
2018-03-28T02:09:39.029Z,95401.71
2018-03-28T02:12:08.511Z,95407.30
2018-03-28T02:14:38.016Z,95401.89
2018-03-28T02:17:07.521Z,95396.27
2018-03-28T02:19:37.395Z,95405.97
2018-03-28T02:22:06.894Z,95399.59
2018-03-28T02:24:36.381Z,95399.40
2018-03-28T02:27:07.603Z,95409.66
2018-03-28T02:29:37.102Z,95413.55
2018-03-28T02:32:06.671Z,95402.91
2018-03-28T02:34:36.176Z,95403.32
2018-03-28T02:37:05.377Z,95402.72
2018-03-28T02:39:34.645Z,95395.54
2018-03-28T02:42:04.184Z,95396.31
2018-03-28T02:44:33.664Z,95407.75
2018-03-28T02:47:03.159Z,95400.40
2018-03-28T02:49:32.983Z,95399.64
2018-03-28T02:52:02.466Z,95406.61
2018-03-28T02:54:31.767Z,95407.99
2018-03-28T02:57:01.268Z,95405.66
2018-03-28T02:59:30.770Z,95416.50
2018-03-28T03:02:00.261Z,95404.87
2018-03-28T03:04:29.758Z,95399.66
2018-03-28T03:06:59.644Z,95397.36
2018-03-28T03:09:28.935Z,95401.03
2018-03-28T03:11:58.445Z,95389.39
2018-03-28T03:14:27.961Z,95386.70
2018-03-28T03:16:57.535Z,95387.47
2018-03-28T03:19:27.061Z,95382.08
2018-03-28T03:21:56.561Z,95380.92
2018-03-28T03:24:25.737Z,95385.36
2018-03-28T03:26:55.224Z,95383.61
2018-03-28T03:29:24.769Z,95380.31
2018-03-28T03:31:54.343Z,95379.95
2018-03-28T03:34:23.889Z,95367.16
2018-03-28T03:36:53.163Z,95377.23
2018-03-28T03:39:22.843Z,95373.73
2018-03-28T03:41:52.739Z,95375.70
2018-03-28T03:44:22.225Z,95370.25
2018-03-28T03:46:51.759Z,95373.56
2018-03-28T03:49:21.661Z,95376.45
2018-03-28T03:51:51.177Z,95381.89
2018-03-28T03:54:21.070Z,95385.94
2018-03-28T03:56:50.563Z,95381.30
2018-03-28T03:59:20.048Z,95387.31
2018-03-28T04:01:49.646Z,95408.62
2018-03-28T04:04:19.147Z,95403.58
2018-03-28T04:06:48.640Z,95406.88
2018-03-28T04:09:18.359Z,95406.88
2018-03-28T04:11:47.933Z,95393.92
2018-03-28T04:14:17.528Z,95402.80
2018-03-28T04:16:47.268Z,95398.56
2018-03-28T04:19:17.151Z,95404.58
2018-03-28T04:21:46.635Z,95403.61
2018-03-28T04:24:16.157Z,95406.89
2018-03-28T04:26:45.682Z,95413.69
2018-03-28T04:29:15.573Z,95412.52
2018-03-28T04:31:45.085Z,95415.80
2018-03-28T04:34:14.575Z,95421.02
2018-03-28T04:36:44.067Z,95417.35
2018-03-28T04:39:13.609Z,95410.56
2018-03-28T04:41:43.137Z,95418.11
2018-03-28T04:44:12.654Z,95418.68
2018-03-28T04:46:42.157Z,95416.36
2018-03-28T04:49:11.665Z,95413.45
2018-03-28T04:51:41.759Z,95406.67
2018-03-28T04:54:11.694Z,95411.34
2018-03-28T04:56:41.602Z,95411.55
2018-03-28T04:59:11.521Z,95416.56
2018-03-28T05:01:41.428Z,95412.52
2018-03-28T05:04:11.357Z,95415.22
2018-03-28T05:06:41.433Z,95408.42
2018-03-28T05:09:10.927Z,95410.17
2018-03-28T05:11:40.428Z,95413.28
2018-03-28T05:14:09.929Z,95399.91
2018-03-28T05:16:39.487Z,95409.78
2018-03-28T05:19:09.399Z,95417.34
2018-03-28T05:21:39.317Z,95412.91
2018-03-28T05:24:08.637Z,95409.78
2018-03-28T05:26:38.127Z,95415.42
2018-03-28T05:29:07.780Z,95413.87
2018-03-28T05:31:37.298Z,95414.47
2018-03-28T05:34:06.624Z,95413.87
2018-03-28T05:36:36.149Z,95411.15
2018-03-28T05:39:05.852Z,95409.41
2018-03-28T05:41:35.789Z,95408.26
2018-03-28T05:44:05.324Z,95411.75
2018-03-28T05:46:35.019Z,95408.06
2018-03-28T05:49:04.321Z,95409.23
2018-03-28T05:51:33.807Z,95408.44
2018-03-28T05:54:03.303Z,95412.52
2018-03-28T05:56:33.183Z,95424.33
2018-03-28T05:59:02.685Z,95423.95
2018-03-28T06:01:32.194Z,95420.84
2018-03-28T06:04:01.686Z,95426.87
2018-03-28T06:06:31.363Z,95429.77
2018-03-28T06:09:00.881Z,95428.20
2018-03-28T06:11:30.359Z,95429.16
2018-03-28T06:14:00.271Z,95424.72
2018-03-28T06:16:30.169Z,95419.89
2018-03-28T06:18:59.659Z,95420.25
2018-03-28T06:21:29.163Z,95417.36
2018-03-28T06:23:58.647Z,95419.87
2018-03-28T06:26:28.147Z,95415.63
2018-03-28T06:28:57.639Z,95416.60
2018-03-28T06:31:27.124Z,95409.25
2018-03-28T06:33:56.651Z,95418.74
2018-03-28T06:36:26.139Z,95403.61
2018-03-28T06:38:55.639Z,95396.45
2018-03-28T06:41:25.527Z,95403.23
2018-03-28T06:43:55.038Z,95396.23
2018-03-28T06:46:24.561Z,95390.63
2018-03-28T06:48:54.443Z,95388.70
2018-03-28T06:51:23.949Z,95392.97
2018-03-28T06:53:53.443Z,95394.72
2018-03-28T06:56:22.796Z,95393.15
2018-03-28T06:58:52.334Z,95385.78
2018-03-28T07:01:21.823Z,95381.91
2018-03-28T07:03:51.307Z,95383.64
2018-03-28T07:06:21.223Z,95383.64
2018-03-28T07:08:51.139Z,95387.32
2018-03-28T07:11:21.027Z,95392.95
2018-03-28T07:13:50.511Z,95390.81
2018-03-28T07:16:20.028Z,95392.37
2018-03-28T07:18:49.527Z,95387.54
2018-03-28T07:21:18.788Z,95390.23
2018-03-28T07:23:48.310Z,95384.66
2018-03-28T07:26:18.758Z,95382.32
2018-03-28T07:28:48.241Z,95375.91
2018-03-28T07:31:18.134Z,95375.70
2018-03-28T07:33:47.651Z,95369.69
2018-03-28T07:36:17.164Z,95365.23
2018-03-28T07:38:46.672Z,95364.46
2018-03-28T07:41:16.175Z,95368.50
2018-03-28T07:43:45.787Z,95367.53
2018-03-28T07:46:15.487Z,95371.25
2018-03-28T07:48:44.979Z,95370.84
2018-03-28T07:51:14.476Z,95365.41
2018-03-28T07:53:44.389Z,95359.00
2018-03-28T07:56:14.006Z,95367.36
2018-03-28T07:58:43.536Z,95365.22
2018-03-28T08:01:13.014Z,95367.72
2018-03-28T08:03:42.940Z,95368.91
2018-03-28T08:06:12.432Z,95367.71
2018-03-28T08:08:42.336Z,95370.83
2018-03-28T08:11:12.224Z,95367.53
2018-03-28T08:13:41.760Z,95362.32
2018-03-28T08:16:11.646Z,95363.87
2018-03-28T08:18:41.142Z,95360.39
2018-03-28T08:21:10.680Z,95351.84
2018-03-28T08:23:40.638Z,95353.98
2018-03-28T08:26:10.159Z,95350.09
2018-03-28T08:28:39.646Z,95348.53
2018-03-28T08:31:09.210Z,95347.95
2018-03-28T08:33:38.692Z,95337.08
2018-03-28T08:36:08.202Z,95332.97
2018-03-28T08:38:37.704Z,95335.25
2018-03-28T08:41:07.188Z,95322.05
2018-03-28T08:43:36.684Z,95315.61
2018-03-28T08:46:06.174Z,95316.13
2018-03-28T08:48:35.676Z,95316.23
2018-03-28T08:51:05.188Z,95310.77
2018-03-28T08:53:34.721Z,95308.00
2018-03-28T08:56:04.270Z,95307.03
2018-03-28T08:58:34.229Z,95303.77
2018-03-28T09:01:03.724Z,95301.73
2018-03-28T09:03:33.220Z,95296.89
2018-03-28T09:06:02.741Z,95303.41
2018-03-28T09:08:32.440Z,95304.56
2018-03-28T09:11:01.925Z,95303.73
2018-03-28T09:13:31.884Z,95300.64
2018-03-28T09:16:01.369Z,95303.12
2018-03-28T09:18:30.850Z,95301.16
2018-03-28T09:21:00.751Z,95299.58
2018-03-28T09:23:30.311Z,95297.95
2018-03-28T09:25:59.834Z,95292.19
2018-03-28T09:28:29.527Z,95292.13
2018-03-28T09:30:59.016Z,95288.37
2018-03-28T09:33:28.504Z,95284.48
2018-03-28T09:35:58.570Z,95276.44
2018-03-28T09:38:28.230Z,95283.00
2018-03-28T09:40:57.774Z,95271.82
2018-03-28T09:43:27.287Z,95267.41
2018-03-28T09:45:56.786Z,95267.20
2018-03-28T09:48:26.300Z,95271.82
2018-03-28T09:50:55.790Z,95263.98
2018-03-28T09:53:25.300Z,95258.66
2018-03-28T09:55:54.813Z,95248.58
2018-03-28T09:58:24.315Z,95254.28
2018-03-28T10:00:59.519Z,95249.78
2018-03-28T10:03:29.250Z,95245.73
2018-03-28T10:05:58.991Z,95251.25
2018-03-28T10:08:28.496Z,95257.64
2018-03-28T10:10:57.986Z,95252.34
2018-03-28T10:13:27.514Z,95251.59
2018-03-28T10:15:57.012Z,95240.05
2018-03-28T10:18:26.510Z,95241.88
2018-03-28T10:20:56.012Z,95244.61
2018-03-28T10:23:25.269Z,95238.70
2018-03-28T10:25:55.234Z,95243.16
2018-03-28T10:28:24.737Z,95228.64
2018-03-28T10:30:54.504Z,95229.24
2018-03-28T10:33:24.422Z,95227.06
2018-03-28T10:35:53.323Z,95215.83
2018-03-28T10:38:22.930Z,95219.89
2018-03-28T10:40:52.412Z,95220.82
2018-03-28T10:43:22.301Z,95213.55
2018-03-28T10:45:51.804Z,95211.55
2018-03-28T10:48:21.338Z,95204.73
2018-03-28T10:50:51.496Z,95200.15
2018-03-28T10:53:21.018Z,95200.31
2018-03-28T10:55:50.562Z,95197.23
2018-03-28T10:58:20.136Z,95184.27
2018-03-28T11:00:49.824Z,95180.95
2018-03-28T11:03:19.151Z,95175.58
2018-03-28T11:05:48.678Z,95165.30
2018-03-28T11:08:18.186Z,95162.09
2018-03-28T11:10:47.692Z,95168.98
2018-03-28T11:13:17.212Z,95156.94
2018-03-28T11:15:47.102Z,95157.14
2018-03-28T11:18:16.360Z,95154.67
2018-03-28T11:20:45.866Z,95153.20
2018-03-28T11:23:15.372Z,95147.92
2018-03-28T11:25:44.912Z,95143.89
2018-03-28T11:28:14.426Z,95143.28
2018-03-28T11:30:43.958Z,95141.59
2018-03-28T11:33:13.872Z,95137.43
2018-03-28T11:35:43.772Z,95133.16
2018-03-28T11:38:13.285Z,95132.98
2018-03-28T11:40:43.188Z,95120.83
2018-03-28T11:43:12.708Z,95125.70
2018-03-28T11:45:42.207Z,95117.81
2018-03-28T11:48:11.720Z,95121.04
2018-03-28T11:50:41.632Z,95119.56
2018-03-28T11:53:11.184Z,95121.95
2018-03-28T11:55:40.698Z,95113.25
2018-03-28T11:58:10.204Z,95107.78
2018-03-28T12:00:39.746Z,95110.09
2018-03-28T12:03:10.205Z,95101.77
2018-03-28T12:05:40.120Z,95104.98
2018-03-28T12:08:10.026Z,95093.92
2018-03-28T12:10:39.926Z,95098.66
2018-03-28T12:13:09.455Z,95094.00
2018-03-28T12:15:39.348Z,95088.92
2018-03-28T12:18:09.048Z,95084.78
2018-03-28T12:20:38.547Z,95074.64
2018-03-28T12:23:08.062Z,95080.08
2018-03-28T12:25:37.652Z,95064.52
2018-03-28T12:28:07.138Z,95065.62
2018-03-28T12:30:36.692Z,95065.33
2018-03-28T12:33:06.234Z,95062.68
2018-03-28T12:35:35.932Z,95049.95
2018-03-28T12:38:05.424Z,95054.30
2018-03-28T12:40:35.386Z,95049.23
2018-03-28T12:43:04.900Z,95052.30
2018-03-28T12:45:34.468Z,95044.88
2018-03-28T12:48:03.972Z,95038.02
2018-03-28T12:50:33.462Z,95042.66
2018-03-28T12:53:03.392Z,95043.16
2018-03-28T12:55:32.875Z,95034.76
2018-03-28T12:58:02.621Z,95034.02
2018-03-28T13:00:32.139Z,95033.98
2018-03-28T13:03:01.638Z,95025.34
2018-03-28T13:05:31.204Z,95022.53
2018-03-28T13:08:00.737Z,95017.42
2018-03-28T13:10:30.811Z,95022.56
2018-03-28T13:13:00.305Z,95015.02
2018-03-28T13:15:29.806Z,95017.49
2018-03-28T13:17:59.326Z,95016.81
2018-03-28T13:20:28.830Z,95004.05
2018-03-28T13:22:58.779Z,95007.03
2018-03-28T13:25:28.332Z,95007.13
2018-03-28T13:27:58.014Z,95002.84
2018-03-28T13:30:27.515Z,95000.83
2018-03-28T13:32:57.026Z,95003.87
2018-03-28T13:35:26.523Z,94998.72
2018-03-28T13:37:55.698Z,94984.84
2018-03-28T13:40:25.595Z,94993.94
2018-03-28T13:42:55.308Z,94993.67
2018-03-28T13:45:24.804Z,94985.70
2018-03-28T13:47:54.302Z,94989.68
2018-03-28T13:50:23.610Z,94984.66
2018-03-28T13:52:53.095Z,94985.50
2018-03-28T13:55:22.607Z,94977.38
2018-03-28T13:57:52.110Z,94976.23
2018-03-28T14:00:21.601Z,94965.33
2018-03-28T14:02:51.103Z,94958.02
2018-03-28T14:05:20.316Z,94956.39
2018-03-28T14:07:49.816Z,94955.45
2018-03-28T14:10:19.318Z,94950.45
2018-03-28T14:12:48.795Z,94951.50
2018-03-28T14:15:18.709Z,94941.10
2018-03-28T14:17:48.805Z,94939.95
2018-03-28T14:20:18.344Z,94934.39
2018-03-28T14:22:47.846Z,94930.95
2018-03-28T14:25:17.777Z,94933.57
2018-03-28T14:27:47.835Z,94925.92
2018-03-28T14:30:17.379Z,94927.11
2018-03-28T14:32:47.264Z,94925.61
2018-03-28T14:35:16.759Z,94924.66
2018-03-28T14:37:46.251Z,94916.80
2018-03-28T14:40:16.569Z,94910.17
2018-03-28T14:42:54.590Z,94910.75
2018-03-28T14:45:15.871Z,94899.86
2018-03-28T14:47:46.499Z,94895.47
2018-03-28T14:50:16.004Z,94891.80
2018-03-28T14:52:45.770Z,94884.72
2018-03-28T14:55:15.274Z,94890.97
2018-03-28T14:57:44.891Z,94885.23
2018-03-28T15:00:14.391Z,94878.05
2018-03-28T15:02:44.154Z,94876.89
2018-03-28T15:05:14.261Z,94885.02
2018-03-28T15:07:44.043Z,94873.04
2018-03-28T15:10:13.697Z,94866.99
2018-03-28T15:12:43.200Z,94858.35
2018-03-28T15:15:12.705Z,94852.08
2018-03-28T15:17:42.201Z,94856.08
2018-03-28T15:20:11.733Z,94844.41
2018-03-28T15:22:41.242Z,94845.12
2018-03-28T15:25:10.778Z,94839.71
2018-03-28T15:27:40.527Z,94833.66
2018-03-28T15:30:10.015Z,94837.12
2018-03-28T15:32:39.971Z,94833.80
2018-03-28T15:35:09.683Z,94834.02
2018-03-28T15:37:39.356Z,94837.20
2018-03-28T15:40:09.124Z,94822.15
2018-03-28T15:42:39.242Z,94829.10
2018-03-28T15:45:08.737Z,94831.95
2018-03-28T15:47:39.147Z,94825.99
2018-03-28T15:50:08.651Z,94818.85
2018-03-28T15:52:38.207Z,94814.51
2018-03-28T15:55:07.768Z,94811.26
2018-03-28T15:57:37.475Z,94804.23
2018-03-28T16:00:06.408Z,94798.86
2018-03-28T16:02:36.339Z,94801.69
2018-03-28T16:05:05.632Z,94803.16
2018-03-28T16:07:35.154Z,94802.19
2018-03-28T16:10:04.866Z,94796.83
2018-03-28T16:12:35.317Z,94785.77
2018-03-28T16:15:05.092Z,94791.98
2018-03-28T16:17:35.783Z,94785.58
2018-03-28T16:20:04.461Z,94775.70
2018-03-28T16:22:34.033Z,94766.41
2018-03-28T16:25:03.597Z,94764.77
2018-03-28T16:27:33.163Z,94765.45
2018-03-28T16:30:02.729Z,94764.84
2018-03-28T16:32:32.333Z,94765.58
2018-03-28T16:35:01.921Z,94767.43
2018-03-28T16:37:31.889Z,94765.80
2018-03-28T16:40:01.420Z,94758.73
2018-03-28T16:42:30.870Z,94750.25
2018-03-28T16:45:00.739Z,94744.00
2018-03-28T16:47:30.741Z,94741.20
2018-03-28T16:50:01.609Z,94744.38
2018-03-28T16:52:32.017Z,94738.05
2018-03-28T16:55:01.553Z,94740.80
2018-03-28T16:57:31.119Z,94737.34
2018-03-28T17:00:01.967Z,94733.98
2018-03-28T17:02:32.865Z,94730.14
2018-03-28T17:05:02.387Z,94735.93
2018-03-28T17:07:32.300Z,94726.74
2018-03-28T17:10:02.211Z,94737.08
2018-03-28T17:12:31.859Z,94744.09
2018-03-28T17:15:01.351Z,94744.32
2018-03-28T17:17:30.534Z,94744.00
2018-03-28T17:20:00.421Z,94752.31
2018-03-28T17:22:30.149Z,94750.52
2018-03-28T17:25:00.051Z,94749.70
2018-03-28T17:27:30.003Z,94743.05
2018-03-28T17:29:59.490Z,94745.09
2018-03-28T17:32:29.395Z,94739.89
2018-03-28T17:34:59.135Z,94736.10
2018-03-28T17:37:28.675Z,94732.74
2018-03-28T17:39:59.761Z,94730.86
2018-03-28T17:42:29.663Z,94730.52
2018-03-28T17:44:59.470Z,94738.55
2018-03-28T17:47:28.955Z,94736.59
2018-03-28T17:49:58.455Z,94729.92
2018-03-28T17:52:27.971Z,94735.89
2018-03-28T17:54:57.489Z,94743.73
2018-03-28T17:57:27.242Z,94743.78
2018-03-28T17:59:56.877Z,94742.36
2018-03-28T18:02:26.399Z,94744.85
2018-03-28T18:04:55.955Z,94748.10
2018-03-28T18:07:25.845Z,94751.80
2018-03-28T18:09:55.343Z,94749.85
2018-03-28T18:12:24.858Z,94753.64
2018-03-28T18:14:54.350Z,94760.08
2018-03-28T18:17:23.857Z,94764.46
2018-03-28T18:19:53.385Z,94768.80
2018-03-28T18:22:23.484Z,94768.45
2018-03-28T18:24:53.040Z,94759.04
2018-03-28T18:27:22.543Z,94764.86
2018-03-28T18:29:52.046Z,94762.28
2018-03-28T18:32:21.565Z,94765.50
2018-03-28T18:34:51.075Z,94769.25
2018-03-28T18:37:20.579Z,94765.12
2018-03-28T18:39:50.064Z,94763.03
2018-03-28T18:42:19.549Z,94776.02
2018-03-28T18:44:49.456Z,94764.44
2018-03-28T18:47:18.951Z,94771.59
2018-03-28T18:49:48.450Z,94778.73
2018-03-28T18:52:17.948Z,94786.42
2018-03-28T18:54:47.481Z,94784.09
2018-03-28T18:57:16.772Z,94778.41
2018-03-28T18:59:46.388Z,94786.92
2018-03-28T19:02:15.894Z,94775.00
2018-03-28T19:04:45.807Z,94793.95
2018-03-28T19:07:15.342Z,94775.91
2018-03-28T19:09:45.263Z,94785.26
2018-03-28T19:12:15.415Z,94800.03
2018-03-28T19:14:45.290Z,94806.65
2018-03-28T19:17:14.801Z,94806.84
2018-03-28T19:19:44.780Z,94812.73
2018-03-28T19:22:15.211Z,94825.17
2018-03-28T19:24:44.785Z,94832.41
2018-03-28T19:27:14.298Z,94825.47
2018-03-28T19:29:44.580Z,94841.64
2018-03-28T19:32:14.255Z,94856.28
2018-03-28T19:34:43.476Z,94860.02
2018-03-28T19:37:13.439Z,94870.92
2018-03-28T19:39:42.995Z,94878.78
2018-03-28T19:42:12.895Z,94877.22
2018-03-28T19:44:42.388Z,94876.27
2018-03-28T19:47:11.890Z,94881.30
2018-03-28T19:49:41.401Z,94878.45
2018-03-28T19:52:10.902Z,94888.21
2018-03-28T19:54:40.406Z,94887.55
2018-03-28T19:57:09.908Z,94892.56
2018-03-28T19:59:39.438Z,94884.02
2018-03-28T20:02:09.173Z,94887.94
2018-03-28T20:04:39.407Z,94881.72
2018-03-28T20:07:09.201Z,94901.45
2018-03-28T20:09:39.091Z,94886.34
2018-03-28T20:12:08.588Z,94891.08
2018-03-28T20:14:38.098Z,94898.66
2018-03-28T20:17:07.849Z,94896.89
2018-03-28T20:19:37.346Z,94897.52
2018-03-28T20:22:08.132Z,94898.67
2018-03-28T20:24:37.646Z,94899.33
2018-03-28T20:27:07.340Z,94901.34
2018-03-28T20:29:36.840Z,94893.80
2018-03-28T20:32:06.388Z,94895.97
2018-03-28T20:34:35.882Z,94897.78
2018-03-28T20:37:05.389Z,94906.19
2018-03-28T20:39:34.885Z,94904.99
2018-03-28T20:42:04.399Z,94903.08
2018-03-28T20:44:34.802Z,94899.78
2018-03-28T20:47:04.303Z,94899.69
2018-03-28T20:49:33.977Z,94894.28
2018-03-28T20:52:04.149Z,94897.22
2018-03-28T20:54:33.821Z,94909.15
2018-03-28T20:57:04.188Z,94901.20
2018-03-28T20:59:33.690Z,94903.75
2018-03-28T21:02:03.198Z,94898.59
2018-03-28T21:04:32.656Z,94893.75
2018-03-28T21:07:02.182Z,94899.56
2018-03-28T21:09:31.663Z,94896.91
2018-03-28T21:12:01.538Z,94890.34
2018-03-28T21:14:31.051Z,94889.09
2018-03-28T21:17:00.543Z,94895.48
2018-03-28T21:19:30.072Z,94897.10
2018-03-28T21:21:59.736Z,94885.08
2018-03-28T21:24:29.243Z,94883.88
2018-03-28T21:26:58.738Z,94880.16
2018-03-28T21:29:28.430Z,94879.75
2018-03-28T21:31:57.933Z,94880.52
2018-03-28T21:34:27.453Z,94878.97
2018-03-28T21:36:56.978Z,94884.96
2018-03-28T21:39:26.458Z,94876.36
2018-03-28T21:41:55.976Z,94877.75
2018-03-28T21:44:25.479Z,94877.95
2018-03-28T21:46:54.960Z,94879.47
2018-03-28T21:49:24.891Z,94880.86
2018-03-28T21:51:54.376Z,94885.67
2018-03-28T21:54:24.258Z,94884.51
2018-03-28T21:56:53.742Z,94881.95
2018-03-28T21:59:23.266Z,94883.70
2018-03-28T22:01:52.794Z,94889.72
2018-03-28T22:04:22.268Z,94884.48
2018-03-28T22:06:51.765Z,94887.61
2018-03-28T22:09:21.293Z,94886.64
2018-03-28T22:11:50.778Z,94888.33
2018-03-28T22:14:20.310Z,94891.44
2018-03-28T22:16:49.846Z,94893.38
2018-03-28T22:19:20.536Z,94893.15
2018-03-28T22:21:50.173Z,94890.66
2018-03-28T22:24:19.834Z,94898.45
2018-03-28T22:26:49.106Z,94893.18
2018-03-28T22:29:18.646Z,94902.69
2018-03-28T22:31:48.221Z,94904.08
2018-03-28T22:34:17.750Z,94904.85
2018-03-28T22:36:47.231Z,94906.70
2018-03-28T22:39:17.275Z,94904.83
2018-03-28T22:41:46.793Z,94900.33
2018-03-28T22:44:16.308Z,94911.59
2018-03-28T22:53:57.723Z,94917.33
2018-03-28T22:56:27.236Z,94929.19
2018-03-28T22:58:56.728Z,94939.72
2018-03-28T23:01:26.259Z,94954.47
2018-03-28T23:03:55.833Z,94965.36
2018-03-28T23:06:25.320Z,94968.17
2018-03-28T23:08:54.877Z,94970.08
2018-03-28T23:11:24.453Z,94968.16
2018-03-28T23:13:53.948Z,94983.06
2018-03-28T23:16:23.446Z,94977.05
2018-03-28T23:22:38.705Z,94982.96
2018-03-28T23:25:07.892Z,94993.66
2018-03-28T23:27:37.387Z,94993.11
2018-03-28T23:30:06.566Z,94997.19
2018-03-28T23:32:36.055Z,95004.03
2018-03-28T23:35:05.557Z,95007.17
2018-03-28T23:37:35.430Z,95016.30
2018-03-28T23:40:04.596Z,95017.89
2018-03-28T23:42:33.809Z,95015.38
2018-03-28T23:45:03.308Z,95013.09
2018-03-28T23:47:32.916Z,95014.08
2018-03-28T23:50:02.398Z,95022.27
2018-03-28T23:52:32.090Z,95024.39
2018-03-28T23:55:01.981Z,95019.94
2018-03-28T23:57:31.464Z,95022.09
